2026/08/07
| Sensor | Date | Temp./Hum. |
|---|---|---|
| h4-hermonville | 07-08-2026 - 23:58 | 21.1°C / 45% |
| h2-hermonville | 07-08-2026 - 23:54 | 22.5°C / 42% |
| h1-hermonville | 07-08-2026 - 23:54 | 18.8°C / 50.5% |
| h3-hermonville | 07-08-2026 - 23:50 | 20.4°C / 46% |
| h4-hermonville | 07-08-2026 - 23:48 | 21.1°C / 44.5% |
| h1-hermonville | 07-08-2026 - 23:44 | 18.9°C / 50.5% |
| h3-hermonville | 07-08-2026 - 23:40 | 20.6°C / 46% |
| h4-hermonville | 07-08-2026 - 23:38 | 21.1°C / 44.5% |
| h2-hermonville | 07-08-2026 - 23:34 | 23.2°C / 41.5% |
| h1-hermonville | 07-08-2026 - 23:34 | 19.1°C / 50% |
| h3-hermonville | 07-08-2026 - 23:30 | 20.7°C / 45.5% |
| h4-hermonville | 07-08-2026 - 23:28 | 21.3°C / 44.5% |
| h2-hermonville | 07-08-2026 - 23:24 | 23.3°C / 41.5% |
| h1-hermonville | 07-08-2026 - 23:24 | 19.3°C / 49.5% |
| h3-hermonville | 07-08-2026 - 23:20 | 20.8°C / 45.5% |
| h4-hermonville | 07-08-2026 - 23:18 | 21.5°C / 44% |
| h2-hermonville | 07-08-2026 - 23:14 | 22.9°C / 42.5% |
| h1-hermonville | 07-08-2026 - 23:14 | 19.6°C / 48.5% |
| h3-hermonville | 07-08-2026 - 23:10 | 20.9°C / 45% |
| h4-hermonville | 07-08-2026 - 23:08 | 21.5°C / 44% |
| h2-hermonville | 07-08-2026 - 23:04 | 23.7°C / 41% |
| h1-hermonville | 07-08-2026 - 23:04 | 19.8°C / 48% |
| h3-hermonville | 07-08-2026 - 23:00 | 21.2°C / 44.5% |
| h4-hermonville | 07-08-2026 - 22:58 | 21.6°C / 43.5% |
| h2-hermonville | 07-08-2026 - 22:54 | 23.7°C / 41.5% |
| h1-hermonville | 07-08-2026 - 22:54 | 19.9°C / 47% |
| h3-hermonville | 07-08-2026 - 22:50 | 21.2°C / 44% |
| h4-hermonville | 07-08-2026 - 22:48 | 21.8°C / 43% |
| h2-hermonville | 07-08-2026 - 22:44 | 23.8°C / 39.5% |
| h1-hermonville | 07-08-2026 - 22:44 | 20.2°C / 47% |
| h3-hermonville | 07-08-2026 - 22:40 | 21.4°C / 43.5% |
| h4-hermonville | 07-08-2026 - 22:38 | 21.8°C / 42.5% |
| h2-hermonville | 07-08-2026 - 22:34 | 24.1°C / 40% |
| h1-hermonville | 07-08-2026 - 22:34 | 20.4°C / 46.5% |
| h3-hermonville | 07-08-2026 - 22:30 | 21.6°C / 43% |
| h4-hermonville | 07-08-2026 - 22:28 | 22°C / 42% |
| h2-hermonville | 07-08-2026 - 22:24 | 24.3°C / 39.5% |
| h1-hermonville | 07-08-2026 - 22:24 | 20.6°C / 46% |
| h3-hermonville | 07-08-2026 - 22:20 | 21.6°C / 43% |
| h4-hermonville | 07-08-2026 - 22:18 | 22.1°C / 42% |
| h2-hermonville | 07-08-2026 - 22:14 | 24.3°C / 39% |
| h1-hermonville | 07-08-2026 - 22:14 | 20.8°C / 45% |
| h3-hermonville | 07-08-2026 - 22:10 | 21.9°C / 42.5% |
| h4-hermonville | 07-08-2026 - 22:08 | 22.3°C / 41.5% |
| h2-hermonville | 07-08-2026 - 22:04 | 24.5°C / 38.5% |
| h1-hermonville | 07-08-2026 - 22:04 | 21.1°C / 44.5% |
| h3-hermonville | 07-08-2026 - 22:00 | 22°C / 41.5% |
| h4-hermonville | 07-08-2026 - 21:58 | 22.3°C / 41% |
| h2-hermonville | 07-08-2026 - 21:54 | 24.6°C / 38.5% |
| h1-hermonville | 07-08-2026 - 21:54 | 21.3°C / 43.5% |
| h3-hermonville | 07-08-2026 - 21:50 | 22.2°C / 41% |
| h4-hermonville | 07-08-2026 - 21:48 | 22.4°C / 41% |
| h2-hermonville | 07-08-2026 - 21:44 | 24.7°C / 38% |
| h1-hermonville | 07-08-2026 - 21:44 | 21.5°C / 43% |
| h3-hermonville | 07-08-2026 - 21:40 | 22.4°C / 40.5% |
| h4-hermonville | 07-08-2026 - 21:38 | 22.5°C / 40.5% |
| h2-hermonville | 07-08-2026 - 21:34 | 24.9°C / 37% |
| h1-hermonville | 07-08-2026 - 21:34 | 21.7°C / 42.5% |
| h3-hermonville | 07-08-2026 - 21:30 | 22.7°C / 40% |
| h4-hermonville | 07-08-2026 - 21:28 | 22.6°C / 39.5% |
| h2-hermonville | 07-08-2026 - 21:24 | 25.1°C / 38% |
| h1-hermonville | 07-08-2026 - 21:24 | 21.9°C / 41.5% |
| h3-hermonville | 07-08-2026 - 21:20 | 22.9°C / 39.5% |
| h4-hermonville | 07-08-2026 - 21:18 | 22.7°C / 39.5% |
| h2-hermonville | 07-08-2026 - 21:14 | 25.2°C / 37.5% |
| h1-hermonville | 07-08-2026 - 21:14 | 22.1°C / 41% |
| h3-hermonville | 07-08-2026 - 21:10 | 23.2°C / 39% |
| h4-hermonville | 07-08-2026 - 21:08 | 22.9°C / 39% |
| h2-hermonville | 07-08-2026 - 21:04 | 25.3°C / 36.5% |
| h1-hermonville | 07-08-2026 - 21:04 | 22.4°C / 41% |
| h3-hermonville | 07-08-2026 - 21:00 | 23.4°C / 38.5% |
| h4-hermonville | 07-08-2026 - 20:58 | 23.1°C / 39% |
| h2-hermonville | 07-08-2026 - 20:54 | 25.5°C / 36.5% |
| h1-hermonville | 07-08-2026 - 20:54 | 22.6°C / 40.5% |
| h3-hermonville | 07-08-2026 - 20:50 | 23.8°C / 38% |
| h4-hermonville | 07-08-2026 - 20:48 | 23.4°C / 38.5% |
| h2-hermonville | 07-08-2026 - 20:44 | 25.4°C / 36% |
| h1-hermonville | 07-08-2026 - 20:44 | 23.1°C / 39% |
| h3-hermonville | 07-08-2026 - 20:40 | 24.1°C / 37.5% |
| h2-hermonville | 07-08-2026 - 20:34 | 25.8°C / 35.5% |
| h1-hermonville | 07-08-2026 - 20:34 | 23.4°C / 38.5% |
| h3-hermonville | 07-08-2026 - 20:30 | 24.3°C / 36.5% |
| h4-hermonville | 07-08-2026 - 20:28 | 23.7°C / 37% |
| h2-hermonville | 07-08-2026 - 20:24 | 25.9°C / 34.5% |
| h1-hermonville | 07-08-2026 - 20:24 | 23.7°C / 37.5% |
| h3-hermonville | 07-08-2026 - 20:20 | 24.6°C / 35.5% |
| h4-hermonville | 07-08-2026 - 20:18 | 23.8°C / 36% |
| h2-hermonville | 07-08-2026 - 20:14 | 26.6°C / 32.5% |
| h1-hermonville | 07-08-2026 - 20:14 | 24°C / 36% |
| h3-hermonville | 07-08-2026 - 20:10 | 24.6°C / 34.5% |
| h4-hermonville | 07-08-2026 - 20:08 | 23.8°C / 35% |
| h2-hermonville | 07-08-2026 - 20:04 | 30°C / 27.5% |
| h1-hermonville | 07-08-2026 - 20:04 | 24.1°C / 35% |
| h3-hermonville | 07-08-2026 - 20:00 | 24.8°C / 33.5% |
| h4-hermonville | 07-08-2026 - 19:58 | 24°C / 34.5% |
| h2-hermonville | 07-08-2026 - 19:54 | 29.9°C / 27% |
| h1-hermonville | 07-08-2026 - 19:54 | 24.1°C / 34% |
| h3-hermonville | 07-08-2026 - 19:50 | 24.7°C / 33% |
| h4-hermonville | 07-08-2026 - 19:48 | 24.1°C / 33.5% |
| h2-hermonville | 07-08-2026 - 19:44 | 30.6°C / 27% |
| h1-hermonville | 07-08-2026 - 19:44 | 24.2°C / 33.5% |
| h3-hermonville | 07-08-2026 - 19:40 | 24.8°C / 32.5% |
| h4-hermonville | 07-08-2026 - 19:38 | 24.2°C / 33% |
| h2-hermonville | 07-08-2026 - 19:34 | 30.9°C / 26% |
| h1-hermonville | 07-08-2026 - 19:34 | 24.3°C / 32.5% |
| h3-hermonville | 07-08-2026 - 19:30 | 24.7°C / 32% |
| h4-hermonville | 07-08-2026 - 19:28 | 24.4°C / 32% |
| h2-hermonville | 07-08-2026 - 19:24 | 32.1°C / 25% |
| h1-hermonville | 07-08-2026 - 19:24 | 24.3°C / 31.5% |
| h3-hermonville | 07-08-2026 - 19:20 | 24.9°C / 30.5% |
| h4-hermonville | 07-08-2026 - 19:18 | 24.3°C / 32% |
| h2-hermonville | 07-08-2026 - 19:14 | 31.6°C / 25% |
| h1-hermonville | 07-08-2026 - 19:14 | 24.4°C / 32% |
| h3-hermonville | 07-08-2026 - 19:10 | 24.9°C / 31% |
| h4-hermonville | 07-08-2026 - 19:08 | 24.4°C / 32% |
| h2-hermonville | 07-08-2026 - 19:04 | 31.3°C / 25% |
| h1-hermonville | 07-08-2026 - 19:04 | 24.6°C / 32% |
| h3-hermonville | 07-08-2026 - 19:00 | 25.1°C / 31.5% |
| h4-hermonville | 07-08-2026 - 18:58 | 24.4°C / 33% |
| h2-hermonville | 07-08-2026 - 18:54 | 32.1°C / 24.5% |
| h1-hermonville | 07-08-2026 - 18:54 | 24.7°C / 32.5% |
| h3-hermonville | 07-08-2026 - 18:50 | 25.2°C / 31.5% |
| h4-hermonville | 07-08-2026 - 18:48 | 24.4°C / 32.5% |
| h2-hermonville | 07-08-2026 - 18:44 | 32.4°C / 24.5% |
| h1-hermonville | 07-08-2026 - 18:44 | 24.7°C / 31.5% |
| h3-hermonville | 07-08-2026 - 18:40 | 25.3°C / 31.5% |
| h4-hermonville | 07-08-2026 - 18:38 | 24.3°C / 33% |
| h2-hermonville | 07-08-2026 - 18:34 | 32.2°C / 25% |
| h1-hermonville | 07-08-2026 - 18:34 | 24.6°C / 33% |
| h3-hermonville | 07-08-2026 - 18:30 | 25.3°C / 32.5% |
| h4-hermonville | 07-08-2026 - 18:28 | 24.5°C / 34% |
| h2-hermonville | 07-08-2026 - 18:24 | 32.9°C / 24.5% |
| h1-hermonville | 07-08-2026 - 18:24 | 24.6°C / 33.5% |
| h3-hermonville | 07-08-2026 - 18:20 | 25.2°C / 32.5% |
| h4-hermonville | 07-08-2026 - 18:18 | 24.4°C / 33.5% |
| h2-hermonville | 07-08-2026 - 18:14 | 33.7°C / 24% |
| h1-hermonville | 07-08-2026 - 18:14 | 24.6°C / 34% |
| h3-hermonville | 07-08-2026 - 18:10 | 25.3°C / 33% |
| h4-hermonville | 07-08-2026 - 18:08 | 24.3°C / 34% |
| h2-hermonville | 07-08-2026 - 18:04 | 33°C / 25% |
| h1-hermonville | 07-08-2026 - 18:04 | 24.6°C / 34% |
| h3-hermonville | 07-08-2026 - 18:00 | 25.6°C / 33% |
| h4-hermonville | 07-08-2026 - 17:58 | 24.4°C / 34.5% |
| h2-hermonville | 07-08-2026 - 17:54 | 32.5°C / 25.5% |
| h1-hermonville | 07-08-2026 - 17:54 | 24.4°C / 34.5% |
| h3-hermonville | 07-08-2026 - 17:50 | 25.2°C / 33% |
| h4-hermonville | 07-08-2026 - 17:48 | 24.3°C / 34.5% |
| h2-hermonville | 07-08-2026 - 17:44 | 32.2°C / 25% |
| h1-hermonville | 07-08-2026 - 17:44 | 24.5°C / 34.5% |
| h3-hermonville | 07-08-2026 - 17:40 | 25.2°C / 32.5% |
| h4-hermonville | 07-08-2026 - 17:38 | 24.4°C / 33.5% |
| h2-hermonville | 07-08-2026 - 17:34 | 31.6°C / 25.5% |
| h1-hermonville | 07-08-2026 - 17:34 | 24.5°C / 34% |
| h3-hermonville | 07-08-2026 - 17:30 | 25.2°C / 32% |
| h2-hermonville | 07-08-2026 - 17:24 | 31.9°C / 25% |
| h1-hermonville | 07-08-2026 - 17:24 | 24.6°C / 32.5% |
| h3-hermonville | 07-08-2026 - 17:20 | 25.3°C / 31.5% |
| h4-hermonville | 07-08-2026 - 17:18 | 24.3°C / 32.5% |
| h2-hermonville | 07-08-2026 - 17:14 | 30.9°C / 26% |
| h1-hermonville | 07-08-2026 - 17:14 | 24.3°C / 32.5% |
| h3-hermonville | 07-08-2026 - 17:10 | 25.3°C / 31.5% |
| h4-hermonville | 07-08-2026 - 17:08 | 24.2°C / 32.5% |
| h2-hermonville | 07-08-2026 - 17:04 | 30.3°C / 25.5% |
| h1-hermonville | 07-08-2026 - 17:04 | 24.4°C / 32.5% |
| h3-hermonville | 07-08-2026 - 17:00 | 25.3°C / 31.5% |
| h4-hermonville | 07-08-2026 - 16:58 | 24.1°C / 33% |
| h2-hermonville | 07-08-2026 - 16:54 | 30.2°C / 26.5% |
| h1-hermonville | 07-08-2026 - 16:54 | 24.2°C / 32.5% |
| h3-hermonville | 07-08-2026 - 16:50 | 25.5°C / 30.5% |
| h4-hermonville | 07-08-2026 - 16:48 | 24°C / 32.5% |
| h2-hermonville | 07-08-2026 - 16:44 | 29.3°C / 28% |
| h1-hermonville | 07-08-2026 - 16:44 | 24°C / 32.5% |
| h3-hermonville | 07-08-2026 - 16:40 | 25.4°C / 30.5% |
| h4-hermonville | 07-08-2026 - 16:38 | 24°C / 33% |
| h1-hermonville | 07-08-2026 - 16:34 | 23.9°C / 33% |
| h3-hermonville | 07-08-2026 - 16:30 | 25.4°C / 31.5% |
| h4-hermonville | 07-08-2026 - 16:28 | 24°C / 34% |
| h2-hermonville | 07-08-2026 - 16:24 | 28.2°C / 30.5% |
| h1-hermonville | 07-08-2026 - 16:24 | 23.7°C / 35% |
| h3-hermonville | 07-08-2026 - 16:20 | 25.2°C / 32.5% |
| h4-hermonville | 07-08-2026 - 16:18 | 23.8°C / 34% |
| h2-hermonville | 07-08-2026 - 16:14 | 26.6°C / 33% |
| h1-hermonville | 07-08-2026 - 16:14 | 23.5°C / 35% |
| h3-hermonville | 07-08-2026 - 16:10 | 25.1°C / 32.5% |
| h4-hermonville | 07-08-2026 - 16:08 | 23.9°C / 34.5% |
| h2-hermonville | 07-08-2026 - 16:04 | 26.2°C / 33.5% |
| h1-hermonville | 07-08-2026 - 16:04 | 23.4°C / 34.5% |
| h3-hermonville | 07-08-2026 - 16:00 | 25°C / 32% |
| h4-hermonville | 07-08-2026 - 15:58 | 23.7°C / 33% |
| h2-hermonville | 07-08-2026 - 15:54 | 25.2°C / 34.5% |
| h1-hermonville | 07-08-2026 - 15:54 | 23.6°C / 35% |
| h3-hermonville | 07-08-2026 - 15:50 | 24.7°C / 33% |
| h4-hermonville | 07-08-2026 - 15:48 | 23.7°C / 34% |
| h2-hermonville | 07-08-2026 - 15:44 | 26°C / 33% |
| h1-hermonville | 07-08-2026 - 15:44 | 23.2°C / 35% |
| h3-hermonville | 07-08-2026 - 15:40 | 24.2°C / 33.5% |
| h4-hermonville | 07-08-2026 - 15:38 | 23.8°C / 34% |
| h1-hermonville | 07-08-2026 - 15:34 | 23°C / 34.5% |
| h3-hermonville | 07-08-2026 - 15:30 | 24.1°C / 32.5% |
| h4-hermonville | 07-08-2026 - 15:28 | 23.6°C / 33.5% |
| h2-hermonville | 07-08-2026 - 15:24 | 24.9°C / 35% |
| h1-hermonville | 07-08-2026 - 15:24 | 22.9°C / 35.5% |
| h3-hermonville | 07-08-2026 - 15:20 | 24.1°C / 34.5% |
| h4-hermonville | 07-08-2026 - 15:18 | 23.6°C / 34.5% |
| h2-hermonville | 07-08-2026 - 15:14 | 25.2°C / 34.5% |
| h1-hermonville | 07-08-2026 - 15:14 | 22.6°C / 36% |
| h3-hermonville | 07-08-2026 - 15:10 | 24°C / 33.5% |
| h4-hermonville | 07-08-2026 - 15:08 | 23.5°C / 34% |
| h2-hermonville | 07-08-2026 - 15:04 | 24.4°C / 34.5% |
| h1-hermonville | 07-08-2026 - 15:04 | 22.3°C / 33.5% |
| h3-hermonville | 07-08-2026 - 15:00 | 23.7°C / 34% |
| h4-hermonville | 07-08-2026 - 14:58 | 23.4°C / 32% |
| h2-hermonville | 07-08-2026 - 14:54 | 24.7°C / 34% |
| h1-hermonville | 07-08-2026 - 14:54 | 22.2°C / 35% |
| h3-hermonville | 07-08-2026 - 14:50 | 23.7°C / 32% |
| h4-hermonville | 07-08-2026 - 14:48 | 23.5°C / 33.5% |
| h2-hermonville | 07-08-2026 - 14:44 | 24.3°C / 36.5% |
| h1-hermonville | 07-08-2026 - 14:44 | 22.1°C / 35% |
| h3-hermonville | 07-08-2026 - 14:40 | 23.7°C / 34.5% |
| h4-hermonville | 07-08-2026 - 14:38 | 23.4°C / 34% |
| h2-hermonville | 07-08-2026 - 14:34 | 24°C / 37% |
| h1-hermonville | 07-08-2026 - 14:34 | 22°C / 37.5% |
| h3-hermonville | 07-08-2026 - 14:30 | 23.6°C / 35.5% |
| h4-hermonville | 07-08-2026 - 14:28 | 23.3°C / 35% |
| h2-hermonville | 07-08-2026 - 14:24 | 24°C / 36.5% |
| h1-hermonville | 07-08-2026 - 14:24 | 21.8°C / 39% |
| h3-hermonville | 07-08-2026 - 14:20 | 23°C / 35.5% |
| h4-hermonville | 07-08-2026 - 14:18 | 23.2°C / 34.5% |
| h2-hermonville | 07-08-2026 - 14:14 | 24°C / 36.5% |
| h1-hermonville | 07-08-2026 - 14:14 | 21.6°C / 36.5% |
| h3-hermonville | 07-08-2026 - 14:10 | 23.2°C / 34.5% |
| h4-hermonville | 07-08-2026 - 14:08 | 23.2°C / 34.5% |
| h2-hermonville | 07-08-2026 - 14:04 | 23.9°C / 34.5% |
| h1-hermonville | 07-08-2026 - 14:04 | 21.5°C / 36% |
| h3-hermonville | 07-08-2026 - 14:00 | 22.7°C / 36% |
| h4-hermonville | 07-08-2026 - 13:58 | 23°C / 34.5% |
| h2-hermonville | 07-08-2026 - 13:54 | 23.6°C / 35% |
| h1-hermonville | 07-08-2026 - 13:54 | 21.1°C / 37.5% |
| h3-hermonville | 07-08-2026 - 13:50 | 22.9°C / 37% |
| h4-hermonville | 07-08-2026 - 13:48 | 23.1°C / 33% |
| h2-hermonville | 07-08-2026 - 13:44 | 23.9°C / 38.5% |
| h1-hermonville | 07-08-2026 - 13:44 | 21.3°C / 37% |
| h3-hermonville | 07-08-2026 - 13:40 | 22.7°C / 36.5% |
| h1-hermonville | 07-08-2026 - 13:34 | 21.2°C / 38% |
| h3-hermonville | 07-08-2026 - 13:30 | 22.8°C / 36% |
| h4-hermonville | 07-08-2026 - 13:28 | 23.7°C / 35% |
| h2-hermonville | 07-08-2026 - 13:24 | 22.9°C / 38.5% |
| h1-hermonville | 07-08-2026 - 13:24 | 21.2°C / 39.5% |
| h3-hermonville | 07-08-2026 - 13:20 | 22.2°C / 39% |
| h4-hermonville | 07-08-2026 - 13:18 | 23.7°C / 35.5% |
| h2-hermonville | 07-08-2026 - 13:14 | 22.9°C / 41.5% |
| h1-hermonville | 07-08-2026 - 13:14 | 20.9°C / 42.5% |
| h3-hermonville | 07-08-2026 - 13:10 | 22.3°C / 39% |
| h4-hermonville | 07-08-2026 - 13:08 | 23.5°C / 37.5% |
| h2-hermonville | 07-08-2026 - 13:04 | 23°C / 39.5% |
| h1-hermonville | 07-08-2026 - 13:04 | 20.7°C / 44% |
| h3-hermonville | 07-08-2026 - 13:00 | 22.4°C / 39.5% |
| h4-hermonville | 07-08-2026 - 12:58 | 24.3°C / 35% |
| h2-hermonville | 07-08-2026 - 12:54 | 22.7°C / 40.5% |
| h1-hermonville | 07-08-2026 - 12:54 | 20.7°C / 42% |
| h3-hermonville | 07-08-2026 - 12:50 | 22.1°C / 41% |
| h4-hermonville | 07-08-2026 - 12:48 | 24.3°C / 35.5% |
| h2-hermonville | 07-08-2026 - 12:44 | 22.6°C / 42% |
| h1-hermonville | 07-08-2026 - 12:44 | 20.7°C / 44% |
| h3-hermonville | 07-08-2026 - 12:40 | 22°C / 41.5% |
| h2-hermonville | 07-08-2026 - 12:34 | 22.4°C / 44% |
| h1-hermonville | 07-08-2026 - 12:34 | 20.5°C / 45% |
| h3-hermonville | 07-08-2026 - 12:30 | 22°C / 42% |
| h4-hermonville | 07-08-2026 - 12:28 | 25°C / 35.5% |
| h2-hermonville | 07-08-2026 - 12:24 | 22.4°C / 45% |
| h1-hermonville | 07-08-2026 - 12:24 | 20.7°C / 45.5% |
| h3-hermonville | 07-08-2026 - 12:20 | 22.1°C / 43% |
| h4-hermonville | 07-08-2026 - 12:18 | 25.6°C / 34.5% |
| h2-hermonville | 07-08-2026 - 12:14 | 22.3°C / 44.5% |
| h1-hermonville | 07-08-2026 - 12:14 | 20.3°C / 46% |
| h3-hermonville | 07-08-2026 - 12:10 | 22°C / 44.5% |
| h4-hermonville | 07-08-2026 - 12:08 | 26.5°C / 33% |
| h2-hermonville | 07-08-2026 - 12:04 | 22°C / 46.5% |
| h1-hermonville | 07-08-2026 - 12:04 | 20.4°C / 48.5% |
| h3-hermonville | 07-08-2026 - 12:00 | 22.1°C / 45.5% |
| h4-hermonville | 07-08-2026 - 11:58 | 28.1°C / 32% |
| h2-hermonville | 07-08-2026 - 11:54 | 21.7°C / 46.5% |
| h1-hermonville | 07-08-2026 - 11:54 | 20.5°C / 48.5% |
| h3-hermonville | 07-08-2026 - 11:50 | 21.8°C / 46% |
| h4-hermonville | 07-08-2026 - 11:48 | 28.8°C / 31% |
| h2-hermonville | 07-08-2026 - 11:44 | 21.4°C / 48.5% |
| h1-hermonville | 07-08-2026 - 11:44 | 20°C / 49.5% |
| h3-hermonville | 07-08-2026 - 11:40 | 21.6°C / 46.5% |
| h4-hermonville | 07-08-2026 - 11:38 | 29.6°C / 31% |
| h2-hermonville | 07-08-2026 - 11:34 | 21.1°C / 48.5% |
| h1-hermonville | 07-08-2026 - 11:34 | 19.9°C / 50% |
| h3-hermonville | 07-08-2026 - 11:30 | 21.3°C / 47% |
| h4-hermonville | 07-08-2026 - 11:28 | 28.4°C / 32.5% |
| h2-hermonville | 07-08-2026 - 11:24 | 20.9°C / 49% |
| h1-hermonville | 07-08-2026 - 11:24 | 20°C / 51% |
| h3-hermonville | 07-08-2026 - 11:20 | 21°C / 48% |
| h4-hermonville | 07-08-2026 - 11:18 | 29.6°C / 31% |
| h2-hermonville | 07-08-2026 - 11:14 | 20.4°C / 49.5% |
| h1-hermonville | 07-08-2026 - 11:14 | 19°C / 52.5% |
| h3-hermonville | 07-08-2026 - 11:10 | 20.8°C / 48.5% |
| h4-hermonville | 07-08-2026 - 11:08 | 31.1°C / 27.5% |
| h1-hermonville | 07-08-2026 - 11:04 | 18.9°C / 52.5% |
| h3-hermonville | 07-08-2026 - 11:00 | 20.4°C / 49.5% |
| h4-hermonville | 07-08-2026 - 10:58 | 30.9°C / 28.5% |
| h2-hermonville | 07-08-2026 - 10:54 | 19.7°C / 51.5% |
| h1-hermonville | 07-08-2026 - 10:54 | 18.7°C / 54% |
| h3-hermonville | 07-08-2026 - 10:50 | 20.1°C / 51% |
| h4-hermonville | 07-08-2026 - 10:48 | 31.6°C / 29.5% |
| h2-hermonville | 07-08-2026 - 10:44 | 19.1°C / 54.5% |
| h1-hermonville | 07-08-2026 - 10:44 | 18°C / 56% |
| h3-hermonville | 07-08-2026 - 10:40 | 19.9°C / 51.5% |
| h4-hermonville | 07-08-2026 - 10:38 | 31.1°C / 30% |
| h2-hermonville | 07-08-2026 - 10:34 | 18.9°C / 54.5% |
| h1-hermonville | 07-08-2026 - 10:34 | 18°C / 55.5% |
| h3-hermonville | 07-08-2026 - 10:30 | 19.5°C / 53% |
| h4-hermonville | 07-08-2026 - 10:28 | 30°C / 31.5% |
| h2-hermonville | 07-08-2026 - 10:24 | 18.7°C / 55% |
| h1-hermonville | 07-08-2026 - 10:24 | 17.7°C / 56.5% |
| h3-hermonville | 07-08-2026 - 10:20 | 19.1°C / 53% |
| h2-hermonville | 07-08-2026 - 10:14 | 18.2°C / 57.5% |
| h1-hermonville | 07-08-2026 - 10:14 | 17.4°C / 58% |
| h3-hermonville | 07-08-2026 - 10:10 | 19°C / 54% |
| h4-hermonville | 07-08-2026 - 10:08 | 27.2°C / 35.5% |
| h2-hermonville | 07-08-2026 - 10:04 | 18.1°C / 56.5% |
| h1-hermonville | 07-08-2026 - 10:04 | 17.1°C / 59% |
| h3-hermonville | 07-08-2026 - 10:00 | 19°C / 53.5% |
| h4-hermonville | 07-08-2026 - 09:58 | 27.6°C / 35.5% |
| h2-hermonville | 07-08-2026 - 09:54 | 17.9°C / 57.5% |
| h1-hermonville | 07-08-2026 - 09:54 | 17.1°C / 59.5% |
| h3-hermonville | 07-08-2026 - 09:50 | 18.5°C / 56% |
| h4-hermonville | 07-08-2026 - 09:48 | 29.2°C / 33% |
| h2-hermonville | 07-08-2026 - 09:44 | 17.6°C / 58.5% |
| h1-hermonville | 07-08-2026 - 09:44 | 16.6°C / 61% |
| h3-hermonville | 07-08-2026 - 09:40 | 18.5°C / 55% |
| h4-hermonville | 07-08-2026 - 09:38 | 27.2°C / 36.5% |
| h2-hermonville | 07-08-2026 - 09:34 | 17.7°C / 59% |
| h1-hermonville | 07-08-2026 - 09:34 | 16.9°C / 61% |
| h3-hermonville | 07-08-2026 - 09:30 | 18.3°C / 57.5% |
| h4-hermonville | 07-08-2026 - 09:28 | 25.8°C / 39% |
| h2-hermonville | 07-08-2026 - 09:24 | 17.1°C / 60.5% |
| h1-hermonville | 07-08-2026 - 09:24 | 16.6°C / 62% |
| h3-hermonville | 07-08-2026 - 09:20 | 18°C / 58% |
| h4-hermonville | 07-08-2026 - 09:18 | 24.9°C / 40.5% |
| h2-hermonville | 07-08-2026 - 09:14 | 16.8°C / 61.5% |
| h1-hermonville | 07-08-2026 - 09:14 | 16.2°C / 62.5% |
| h3-hermonville | 07-08-2026 - 09:10 | 18°C / 57.5% |
| h2-hermonville | 07-08-2026 - 09:04 | 16.7°C / 61.5% |
| h1-hermonville | 07-08-2026 - 09:04 | 16.3°C / 63% |
| h3-hermonville | 07-08-2026 - 09:00 | 17.8°C / 57.5% |
| h4-hermonville | 07-08-2026 - 08:58 | 22.7°C / 44% |
| h2-hermonville | 07-08-2026 - 08:54 | 16.2°C / 62% |
| h1-hermonville | 07-08-2026 - 08:54 | 16.3°C / 62.5% |
| h3-hermonville | 07-08-2026 - 08:50 | 17.4°C / 59% |
| h2-hermonville | 07-08-2026 - 08:44 | 16°C / 62.5% |
| h1-hermonville | 07-08-2026 - 08:44 | 15.7°C / 63% |
| h3-hermonville | 07-08-2026 - 08:40 | 17.1°C / 60% |
| h4-hermonville | 07-08-2026 - 08:38 | 22.5°C / 44% |
| h2-hermonville | 07-08-2026 - 08:34 | 15.8°C / 63.5% |
| h1-hermonville | 07-08-2026 - 08:34 | 15.5°C / 63.5% |
| h3-hermonville | 07-08-2026 - 08:30 | 16.6°C / 62% |
| h4-hermonville | 07-08-2026 - 08:28 | 20°C / 50% |
| h2-hermonville | 07-08-2026 - 08:24 | 15.4°C / 65.5% |
| h1-hermonville | 07-08-2026 - 08:24 | 15°C / 66% |
| h3-hermonville | 07-08-2026 - 08:20 | 15.8°C / 64% |
| h4-hermonville | 07-08-2026 - 08:18 | 18.3°C / 54.5% |
| h2-hermonville | 07-08-2026 - 08:14 | 14.9°C / 66.5% |
| h1-hermonville | 07-08-2026 - 08:14 | 14.6°C / 67% |
| h3-hermonville | 07-08-2026 - 08:10 | 15.1°C / 65.5% |
| h4-hermonville | 07-08-2026 - 08:08 | 17.3°C / 57.5% |
| h2-hermonville | 07-08-2026 - 08:04 | 14.5°C / 67.5% |
| h1-hermonville | 07-08-2026 - 08:04 | 14.2°C / 69% |
| h3-hermonville | 07-08-2026 - 08:00 | 14.9°C / 66% |
| h4-hermonville | 07-08-2026 - 07:58 | 16.6°C / 59.5% |
| h2-hermonville | 07-08-2026 - 07:54 | 14.2°C / 68.5% |
| h1-hermonville | 07-08-2026 - 07:54 | 14.1°C / 69% |
| h3-hermonville | 07-08-2026 - 07:50 | 14.6°C / 67.5% |
| h4-hermonville | 07-08-2026 - 07:48 | 16.4°C / 60.5% |
| h2-hermonville | 07-08-2026 - 07:44 | 14.2°C / 69.5% |
| h1-hermonville | 07-08-2026 - 07:44 | 14.2°C / 69% |
| h3-hermonville | 07-08-2026 - 07:40 | 14.3°C / 69% |
| h4-hermonville | 07-08-2026 - 07:38 | 15.9°C / 62.5% |
| h2-hermonville | 07-08-2026 - 07:34 | 13.8°C / 71% |
| h1-hermonville | 07-08-2026 - 07:34 | 14.2°C / 69.5% |
| h3-hermonville | 07-08-2026 - 07:30 | 13.9°C / 70% |
| h4-hermonville | 07-08-2026 - 07:28 | 15.4°C / 63.5% |
| h2-hermonville | 07-08-2026 - 07:24 | 13.6°C / 71.5% |
| h1-hermonville | 07-08-2026 - 07:24 | 13.8°C / 70.5% |
| h3-hermonville | 07-08-2026 - 07:20 | 13.5°C / 70.5% |
| h4-hermonville | 07-08-2026 - 07:18 | 15.1°C / 64% |
| h2-hermonville | 07-08-2026 - 07:14 | 13.3°C / 72% |
| h1-hermonville | 07-08-2026 - 07:14 | 13.8°C / 70% |
| h3-hermonville | 07-08-2026 - 07:10 | 13.3°C / 71% |
| h4-hermonville | 07-08-2026 - 07:08 | 14.9°C / 64.5% |
| h2-hermonville | 07-08-2026 - 07:04 | 13.3°C / 72% |
| h1-hermonville | 07-08-2026 - 07:04 | 13.3°C / 72% |
| h3-hermonville | 07-08-2026 - 07:00 | 13.3°C / 71.5% |
| h4-hermonville | 07-08-2026 - 06:58 | 14.7°C / 64.5% |
| h2-hermonville | 07-08-2026 - 06:54 | 13°C / 73% |
| h1-hermonville | 07-08-2026 - 06:54 | 13.1°C / 72.5% |
| h3-hermonville | 07-08-2026 - 06:50 | 13.2°C / 71% |
| h4-hermonville | 07-08-2026 - 06:48 | 14.4°C / 65.5% |
| h2-hermonville | 07-08-2026 - 06:44 | 13.1°C / 71.5% |
| h1-hermonville | 07-08-2026 - 06:44 | 13.1°C / 72.5% |
| h3-hermonville | 07-08-2026 - 06:40 | 14°C / 68% |
| h4-hermonville | 07-08-2026 - 06:38 | 14.8°C / 65% |
| h2-hermonville | 07-08-2026 - 06:34 | 13.7°C / 70% |
| h1-hermonville | 07-08-2026 - 06:34 | 13°C / 73% |
| h3-hermonville | 07-08-2026 - 06:30 | 14.2°C / 68% |
| h4-hermonville | 07-08-2026 - 06:28 | 15.1°C / 64% |
| h2-hermonville | 07-08-2026 - 06:24 | 13.6°C / 70% |
| h1-hermonville | 07-08-2026 - 06:24 | 13.2°C / 71.5% |
| h3-hermonville | 07-08-2026 - 06:20 | 13.7°C / 69% |
| h4-hermonville | 07-08-2026 - 06:18 | 15.4°C / 62% |
| h2-hermonville | 07-08-2026 - 06:14 | 13.8°C / 69.5% |
| h1-hermonville | 07-08-2026 - 06:14 | 13.4°C / 71% |
| h3-hermonville | 07-08-2026 - 06:10 | 13.7°C / 69% |
| h4-hermonville | 07-08-2026 - 06:08 | 15.4°C / 62% |
| h2-hermonville | 07-08-2026 - 06:04 | 13.9°C / 69% |
| h1-hermonville | 07-08-2026 - 06:04 | 13.5°C / 71% |
| h3-hermonville | 07-08-2026 - 06:00 | 14.2°C / 68.5% |
| h4-hermonville | 07-08-2026 - 05:58 | 15.7°C / 62% |
| h2-hermonville | 07-08-2026 - 05:54 | 14°C / 69.5% |
| h1-hermonville | 07-08-2026 - 05:54 | 13.8°C / 70.5% |
| h3-hermonville | 07-08-2026 - 05:50 | 13.9°C / 68.5% |
| h4-hermonville | 07-08-2026 - 05:48 | 16°C / 60.5% |
| h2-hermonville | 07-08-2026 - 05:44 | 13.9°C / 70% |
| h1-hermonville | 07-08-2026 - 05:44 | 14.1°C / 68.5% |
| h3-hermonville | 07-08-2026 - 05:40 | 14.1°C / 68.5% |
| h4-hermonville | 07-08-2026 - 05:38 | 16.1°C / 60% |
| h2-hermonville | 07-08-2026 - 05:34 | 13.9°C / 70% |
| h1-hermonville | 07-08-2026 - 05:34 | 14.5°C / 68% |
| h3-hermonville | 07-08-2026 - 05:30 | 14.3°C / 67.5% |
| h4-hermonville | 07-08-2026 - 05:28 | 16.6°C / 58.5% |
| h2-hermonville | 07-08-2026 - 05:24 | 14.3°C / 67.5% |
| h1-hermonville | 07-08-2026 - 05:24 | 14.3°C / 68% |
| h3-hermonville | 07-08-2026 - 05:20 | 14.3°C / 67.5% |
| h4-hermonville | 07-08-2026 - 05:18 | 16.8°C / 58% |
| h2-hermonville | 07-08-2026 - 05:14 | 14.4°C / 67% |
| h1-hermonville | 07-08-2026 - 05:14 | 14.5°C / 66.5% |
| h3-hermonville | 07-08-2026 - 05:10 | 14.2°C / 67% |
| h4-hermonville | 07-08-2026 - 05:08 | 17.3°C / 56.5% |
| h1-hermonville | 07-08-2026 - 05:04 | 14.6°C / 66.5% |
| h3-hermonville | 07-08-2026 - 05:00 | 14.5°C / 66.5% |
| h4-hermonville | 07-08-2026 - 04:58 | 17.1°C / 57% |
| h2-hermonville | 07-08-2026 - 04:54 | 14.7°C / 65.5% |
| h1-hermonville | 07-08-2026 - 04:54 | 14.7°C / 66% |
| h3-hermonville | 07-08-2026 - 04:50 | 15°C / 64.5% |
| h4-hermonville | 07-08-2026 - 04:48 | 17.1°C / 56.5% |
| h1-hermonville | 07-08-2026 - 04:44 | 14.4°C / 67% |
| h3-hermonville | 07-08-2026 - 04:40 | 15.3°C / 63% |
| h4-hermonville | 07-08-2026 - 04:38 | 17.1°C / 56.5% |
| h2-hermonville | 07-08-2026 - 04:34 | 15.5°C / 63% |
| h1-hermonville | 07-08-2026 - 04:34 | 14.6°C / 66.5% |
| h3-hermonville | 07-08-2026 - 04:30 | 15.8°C / 61.5% |
| h4-hermonville | 07-08-2026 - 04:28 | 17.1°C / 56% |
| h2-hermonville | 07-08-2026 - 04:24 | 15.7°C / 62% |
| h1-hermonville | 07-08-2026 - 04:24 | 14.7°C / 66% |
| h3-hermonville | 07-08-2026 - 04:20 | 16.5°C / 59.5% |
| h4-hermonville | 07-08-2026 - 04:18 | 17.6°C / 54.5% |
| h2-hermonville | 07-08-2026 - 04:14 | 16°C / 61% |
| h1-hermonville | 07-08-2026 - 04:14 | 14.8°C / 65% |
| h3-hermonville | 07-08-2026 - 04:10 | 16.4°C / 59.5% |
| h4-hermonville | 07-08-2026 - 04:08 | 18.1°C / 53.5% |
| h2-hermonville | 07-08-2026 - 04:04 | 16°C / 60.5% |
| h1-hermonville | 07-08-2026 - 04:04 | 14.9°C / 64.5% |
| h3-hermonville | 07-08-2026 - 04:00 | 16.7°C / 58% |
| h4-hermonville | 07-08-2026 - 03:58 | 17.7°C / 54% |
| h2-hermonville | 07-08-2026 - 03:54 | 16.2°C / 60.5% |
| h1-hermonville | 07-08-2026 - 03:54 | 15.1°C / 63.5% |
| h3-hermonville | 07-08-2026 - 03:50 | 16.8°C / 58% |
| h4-hermonville | 07-08-2026 - 03:48 | 17.9°C / 53.5% |
| h2-hermonville | 07-08-2026 - 03:44 | 16.4°C / 59.5% |
| h1-hermonville | 07-08-2026 - 03:44 | 15.3°C / 63% |
| h3-hermonville | 07-08-2026 - 03:40 | 17°C / 57% |
| h4-hermonville | 07-08-2026 - 03:38 | 18.6°C / 51.5% |
| h2-hermonville | 07-08-2026 - 03:34 | 16.9°C / 57.5% |
| h1-hermonville | 07-08-2026 - 03:34 | 15.4°C / 62.5% |
| h3-hermonville | 07-08-2026 - 03:30 | 17.3°C / 55.5% |
| h4-hermonville | 07-08-2026 - 03:28 | 19°C / 50.5% |
| h2-hermonville | 07-08-2026 - 03:24 | 17°C / 57% |
| h1-hermonville | 07-08-2026 - 03:24 | 15.5°C / 62% |
| h3-hermonville | 07-08-2026 - 03:20 | 17.4°C / 55.5% |
| h4-hermonville | 07-08-2026 - 03:18 | 19.2°C / 50% |
| h2-hermonville | 07-08-2026 - 03:14 | 17.4°C / 55.5% |
| h1-hermonville | 07-08-2026 - 03:14 | 15.7°C / 61.5% |
| h3-hermonville | 07-08-2026 - 03:10 | 17.5°C / 55.5% |
| h4-hermonville | 07-08-2026 - 03:08 | 19.2°C / 50% |
| h2-hermonville | 07-08-2026 - 03:04 | 17.7°C / 55% |
| h1-hermonville | 07-08-2026 - 03:04 | 15.7°C / 61% |
| h3-hermonville | 07-08-2026 - 03:00 | 17.6°C / 54.5% |
| h4-hermonville | 07-08-2026 - 02:58 | 19.6°C / 49.5% |
| h2-hermonville | 07-08-2026 - 02:54 | 17.7°C / 54.5% |
| h1-hermonville | 07-08-2026 - 02:54 | 15.7°C / 61% |
| h3-hermonville | 07-08-2026 - 02:50 | 17.7°C / 54.5% |
| h4-hermonville | 07-08-2026 - 02:48 | 19.5°C / 49.5% |
| h2-hermonville | 07-08-2026 - 02:44 | 18.2°C / 53% |
| h1-hermonville | 07-08-2026 - 02:44 | 15.9°C / 60.5% |
| h3-hermonville | 07-08-2026 - 02:40 | 17.9°C / 53.5% |
| h4-hermonville | 07-08-2026 - 02:38 | 19.5°C / 49% |
| h2-hermonville | 07-08-2026 - 02:34 | 18.6°C / 52% |
| h1-hermonville | 07-08-2026 - 02:34 | 16°C / 60% |
| h3-hermonville | 07-08-2026 - 02:30 | 18°C / 53% |
| h4-hermonville | 07-08-2026 - 02:28 | 19.4°C / 49% |
| h2-hermonville | 07-08-2026 - 02:24 | 19°C / 50.5% |
| h1-hermonville | 07-08-2026 - 02:24 | 16°C / 59.5% |
| h3-hermonville | 07-08-2026 - 02:20 | 18.1°C / 53% |
| h4-hermonville | 07-08-2026 - 02:18 | 19.5°C / 48.5% |
| h2-hermonville | 07-08-2026 - 02:14 | 19.3°C / 50.5% |
| h1-hermonville | 07-08-2026 - 02:14 | 16.2°C / 58.5% |
| h3-hermonville | 07-08-2026 - 02:10 | 18.2°C / 52% |
| h4-hermonville | 07-08-2026 - 02:08 | 19.8°C / 47.5% |
| h2-hermonville | 07-08-2026 - 02:04 | 18.9°C / 50.5% |
| h1-hermonville | 07-08-2026 - 02:04 | 16.4°C / 57.5% |
| h3-hermonville | 07-08-2026 - 02:00 | 18.1°C / 52% |
| h4-hermonville | 07-08-2026 - 01:58 | 19.8°C / 47% |
| h2-hermonville | 07-08-2026 - 01:54 | 19°C / 50% |
| h1-hermonville | 07-08-2026 - 01:54 | 16.5°C / 57% |
| h3-hermonville | 07-08-2026 - 01:50 | 18.3°C / 51.5% |
| h4-hermonville | 07-08-2026 - 01:48 | 19.9°C / 46.5% |
| h2-hermonville | 07-08-2026 - 01:44 | 19.6°C / 48% |
| h1-hermonville | 07-08-2026 - 01:44 | 16.7°C / 56% |
| h3-hermonville | 07-08-2026 - 01:40 | 18.3°C / 50.5% |
| h4-hermonville | 07-08-2026 - 01:38 | 20.1°C / 46% |
| h2-hermonville | 07-08-2026 - 01:34 | 20°C / 46.5% |
| h1-hermonville | 07-08-2026 - 01:34 | 16.8°C / 55% |
| h3-hermonville | 07-08-2026 - 01:30 | 18.3°C / 50.5% |
| h4-hermonville | 07-08-2026 - 01:28 | 20.1°C / 45.5% |
| h2-hermonville | 07-08-2026 - 01:24 | 20.1°C / 46.5% |
| h1-hermonville | 07-08-2026 - 01:24 | 16.9°C / 54% |
| h3-hermonville | 07-08-2026 - 01:20 | 18.3°C / 49% |
| h4-hermonville | 07-08-2026 - 01:18 | 20°C / 45% |
| h2-hermonville | 07-08-2026 - 01:14 | 19.9°C / 45.5% |
| h1-hermonville | 07-08-2026 - 01:14 | 17°C / 52.5% |
| h3-hermonville | 07-08-2026 - 01:10 | 18.5°C / 48.5% |
| h4-hermonville | 07-08-2026 - 01:08 | 20°C / 44% |
| h2-hermonville | 07-08-2026 - 01:04 | 20.4°C / 44.5% |
| h1-hermonville | 07-08-2026 - 01:04 | 17.1°C / 51.5% |
| h3-hermonville | 07-08-2026 - 01:00 | 18.6°C / 47% |
| h4-hermonville | 07-08-2026 - 00:58 | 20.2°C / 44% |
| h1-hermonville | 07-08-2026 - 00:54 | 17.3°C / 50.5% |
| h3-hermonville | 07-08-2026 - 00:50 | 18.8°C / 46.5% |
| h4-hermonville | 07-08-2026 - 00:48 | 20.2°C / 43% |
| h2-hermonville | 07-08-2026 - 00:44 | 20.8°C / 43% |
| h1-hermonville | 07-08-2026 - 00:44 | 17.6°C / 49.5% |
| h3-hermonville | 07-08-2026 - 00:40 | 18.8°C / 46% |
| h4-hermonville | 07-08-2026 - 00:38 | 20.3°C / 43% |
| h2-hermonville | 07-08-2026 - 00:34 | 20.9°C / 43.5% |
| h1-hermonville | 07-08-2026 - 00:34 | 17.6°C / 49% |
| h3-hermonville | 07-08-2026 - 00:30 | 19°C / 45.5% |
| h4-hermonville | 07-08-2026 - 00:28 | 20.5°C / 43.5% |
| h2-hermonville | 07-08-2026 - 00:24 | 21.3°C / 41% |
| h1-hermonville | 07-08-2026 - 00:24 | 17.7°C / 49% |
| h3-hermonville | 07-08-2026 - 00:20 | 19.1°C / 46% |
| h4-hermonville | 07-08-2026 - 00:18 | 20.6°C / 43.5% |
| h2-hermonville | 07-08-2026 - 00:14 | 21.5°C / 41.5% |
| h1-hermonville | 07-08-2026 - 00:14 | 17.8°C / 49% |
| h3-hermonville | 07-08-2026 - 00:10 | 19.2°C / 45.5% |
| h4-hermonville | 07-08-2026 - 00:08 | 20.6°C / 43% |
| h2-hermonville | 07-08-2026 - 00:04 | 21.5°C / 41.5% |
| h1-hermonville | 07-08-2026 - 00:04 | 18°C / 48.5% |
| h3-hermonville | 07-08-2026 - 00:00 | 19.3°C / 45% |